sensor_id;sensor_type;location;lat;lon;timestamp;P1;durP1;ratioP1;P2;durP2;ratioP2
12768;SDS011;6448;48.916;8.990;2023-03-04T00:00:48;16.02;;;14.55;;
12768;SDS011;6448;48.916;8.990;2023-03-04T00:01:50;16.98;;;15.38;;
12768;SDS011;6448;48.916;8.990;2023-03-04T00:02:51;16.48;;;15.00;;
12768;SDS011;6448;48.916;8.990;2023-03-04T00:03:52;16.02;;;14.63;;
12768;SDS011;6448;48.916;8.990;2023-03-04T00:04:53;16.52;;;14.95;;
12768;SDS011;6448;48.916;8.990;2023-03-04T00:05:55;16.90;;;15.40;;
12768;SDS011;6448;48.916;8.990;2023-03-04T00:06:56;16.52;;;15.05;;
12768;SDS011;6448;48.916;8.990;2023-03-04T00:07:57;16.15;;;14.65;;
12768;SDS011;6448;48.916;8.990;2023-03-04T00:08:58;16.00;;;14.60;;
12768;SDS011;6448;48.916;8.990;2023-03-04T00:10:00;16.80;;;15.25;;
12768;SDS011;6448;48.916;8.990;2023-03-04T00:11:01;16.35;;;14.85;;
12768;SDS011;6448;48.916;8.990;2023-03-04T00:12:03;16.38;;;14.88;;
12768;SDS011;6448;48.916;8.990;2023-03-04T00:13:06;16.67;;;15.18;;
12768;SDS011;6448;48.916;8.990;2023-03-04T00:14:08;16.52;;;15.00;;
12768;SDS011;6448;48.916;8.990;2023-03-04T00:15:09;16.48;;;14.90;;
12768;SDS011;6448;48.916;8.990;2023-03-04T00:16:12;15.73;;;14.30;;
12768;SDS011;6448;48.916;8.990;2023-03-04T00:17:13;16.35;;;14.85;;
12768;SDS011;6448;48.916;8.990;2023-03-04T00:18:15;16.33;;;14.83;;
12768;SDS011;6448;48.916;8.990;2023-03-04T00:19:15;16.33;;;14.82;;
12768;SDS011;6448;48.916;8.990;2023-03-04T00:20:17;15.10;;;13.77;;
12768;SDS011;6448;48.916;8.990;2023-03-04T00:21:18;15.30;;;13.88;;
12768;SDS011;6448;48.916;8.990;2023-03-04T00:22:20;15.30;;;13.90;;
12768;SDS011;6448;48.916;8.990;2023-03-04T00:23:21;15.55;;;14.15;;
12768;SDS011;6448;48.916;8.990;2023-03-04T00:24:22;15.85;;;14.40;;
12768;SDS011;6448;48.916;8.990;2023-03-04T00:25:24;15.70;;;14.30;;
12768;SDS011;6448;48.916;8.990;2023-03-04T00:26:25;16.17;;;14.68;;
12768;SDS011;6448;48.916;8.990;2023-03-04T00:27:26;16.38;;;14.88;;
12768;SDS011;6448;48.916;8.990;2023-03-04T00:28:28;16.50;;;15.00;;
12768;SDS011;6448;48.916;8.990;2023-03-04T00:29:29;16.65;;;15.15;;
12768;SDS011;6448;48.916;8.990;2023-03-04T00:30:30;16.75;;;15.18;;
12768;SDS011;6448;48.916;8.990;2023-03-04T00:31:33;16.42;;;14.98;;
12768;SDS011;6448;48.916;8.990;2023-03-04T00:32:35;16.50;;;15.07;;
12768;SDS011;6448;48.916;8.990;2023-03-04T00:33:37;16.30;;;14.80;;
12768;SDS011;6448;48.916;8.990;2023-03-04T00:34:39;16.38;;;14.85;;
12768;SDS011;6448;48.916;8.990;2023-03-04T00:35:40;15.68;;;14.27;;
12768;SDS011;6448;48.916;8.990;2023-03-04T00:36:42;15.52;;;14.13;;
12768;SDS011;6448;48.916;8.990;2023-03-04T00:37:43;15.35;;;13.95;;
12768;SDS011;6448;48.916;8.990;2023-03-04T00:38:45;15.50;;;14.10;;
12768;SDS011;6448;48.916;8.990;2023-03-04T00:39:46;15.95;;;14.48;;
12768;SDS011;6448;48.916;8.990;2023-03-04T00:40:48;16.00;;;14.55;;
12768;SDS011;6448;48.916;8.990;2023-03-04T00:41:48;14.98;;;13.60;;
12768;SDS011;6448;48.916;8.990;2023-03-04T00:42:50;15.95;;;14.45;;
12768;SDS011;6448;48.916;8.990;2023-03-04T00:43:51;16.08;;;14.60;;
12768;SDS011;6448;48.916;8.990;2023-03-04T00:44:53;15.38;;;13.93;;
12768;SDS011;6448;48.916;8.990;2023-03-04T00:45:54;15.60;;;14.20;;
12768;SDS011;6448;48.916;8.990;2023-03-04T00:46:57;15.88;;;14.38;;
12768;SDS011;6448;48.916;8.990;2023-03-04T00:47:58;15.35;;;13.98;;
12768;SDS011;6448;48.916;8.990;2023-03-04T00:49:00;15.80;;;14.40;;
12768;SDS011;6448;48.916;8.990;2023-03-04T00:50:01;15.88;;;14.38;;
12768;SDS011;6448;48.916;8.990;2023-03-04T00:51:03;15.00;;;13.70;;
12768;SDS011;6448;48.916;8.990;2023-03-04T00:52:04;15.45;;;14.00;;
12768;SDS011;6448;48.916;8.990;2023-03-04T00:53:05;15.68;;;14.23;;
12768;SDS011;6448;48.916;8.990;2023-03-04T00:54:06;15.40;;;13.90;;
12768;SDS011;6448;48.916;8.990;2023-03-04T00:55:08;15.30;;;13.90;;
12768;SDS011;6448;48.916;8.990;2023-03-04T00:56:09;15.02;;;13.70;;
12768;SDS011;6448;48.916;8.990;2023-03-04T00:57:11;15.25;;;13.85;;
12768;SDS011;6448;48.916;8.990;2023-03-04T00:58:12;14.85;;;13.55;;
12768;SDS011;6448;48.916;8.990;2023-03-04T00:59:13;15.10;;;13.70;;
12768;SDS011;6448;48.916;8.990;2023-03-04T01:00:14;14.77;;;13.48;;
12768;SDS011;6448;48.916;8.990;2023-03-04T01:01:16;14.80;;;13.50;;
12768;SDS011;6448;48.916;8.990;2023-03-04T01:02:19;15.05;;;13.65;;
12768;SDS011;6448;48.916;8.990;2023-03-04T01:03:21;14.82;;;13.52;;
12768;SDS011;6448;48.916;8.990;2023-03-04T01:04:23;14.45;;;13.15;;
12768;SDS011;6448;48.916;8.990;2023-03-04T01:05:25;14.43;;;13.17;;
12768;SDS011;6448;48.916;8.990;2023-03-04T01:06:27;15.05;;;13.70;;
12768;SDS011;6448;48.916;8.990;2023-03-04T01:07:28;14.30;;;13.00;;
12768;SDS011;6448;48.916;8.990;2023-03-04T01:08:29;14.75;;;13.40;;
12768;SDS011;6448;48.916;8.990;2023-03-04T01:09:31;13.63;;;12.43;;
12768;SDS011;6448;48.916;8.990;2023-03-04T01:10:32;14.07;;;12.77;;
12768;SDS011;6448;48.916;8.990;2023-03-04T01:11:34;13.82;;;12.52;;
12768;SDS011;6448;48.916;8.990;2023-03-04T01:12:34;13.80;;;12.60;;
12768;SDS011;6448;48.916;8.990;2023-03-04T01:13:36;13.77;;;12.57;;
12768;SDS011;6448;48.916;8.990;2023-03-04T01:14:37;13.43;;;12.23;;
12768;SDS011;6448;48.916;8.990;2023-03-04T01:15:39;13.63;;;12.32;;
12768;SDS011;6448;48.916;8.990;2023-03-04T01:16:39;14.15;;;12.88;;
12768;SDS011;6448;48.916;8.990;2023-03-04T01:17:43;13.60;;;12.40;;
12768;SDS011;6448;48.916;8.990;2023-03-04T01:18:44;13.00;;;11.82;;
12768;SDS011;6448;48.916;8.990;2023-03-04T01:19:46;12.88;;;11.68;;
12768;SDS011;6448;48.916;8.990;2023-03-04T01:20:47;13.13;;;11.93;;
12768;SDS011;6448;48.916;8.990;2023-03-04T01:21:49;12.95;;;11.85;;
12768;SDS011;6448;48.916;8.990;2023-03-04T01:22:50;13.07;;;11.88;;
12768;SDS011;6448;48.916;8.990;2023-03-04T01:23:52;12.60;;;11.45;;
12768;SDS011;6448;48.916;8.990;2023-03-04T01:24:52;13.55;;;12.35;;
12768;SDS011;6448;48.916;8.990;2023-03-04T01:25:54;13.13;;;11.93;;
12768;SDS011;6448;48.916;8.990;2023-03-04T01:26:55;13.07;;;11.90;;
12768;SDS011;6448;48.916;8.990;2023-03-04T01:27:57;12.40;;;11.30;;
12768;SDS011;6448;48.916;8.990;2023-03-04T01:28:58;12.95;;;11.80;;
12768;SDS011;6448;48.916;8.990;2023-03-04T01:29:59;12.63;;;11.52;;
12768;SDS011;6448;48.916;8.990;2023-03-04T01:31:00;12.60;;;11.50;;
12768;SDS011;6448;48.916;8.990;2023-03-04T01:32:02;12.77;;;11.57;;
12768;SDS011;6448;48.916;8.990;2023-03-04T01:33:05;12.82;;;11.73;;
12768;SDS011;6448;48.916;8.990;2023-03-04T01:34:06;12.27;;;11.18;;
12768;SDS011;6448;48.916;8.990;2023-03-04T01:35:09;13.57;;;12.38;;
12768;SDS011;6448;48.916;8.990;2023-03-04T01:36:11;12.82;;;11.73;;
12768;SDS011;6448;48.916;8.990;2023-03-04T01:37:12;12.95;;;11.75;;
12768;SDS011;6448;48.916;8.990;2023-03-04T01:38:14;13.45;;;12.25;;
12768;SDS011;6448;48.916;8.990;2023-03-04T01:39:14;13.07;;;11.82;;
12768;SDS011;6448;48.916;8.990;2023-03-04T01:40:17;12.98;;;11.77;;
12768;SDS011;6448;48.916;8.990;2023-03-04T01:41:21;13.23;;;12.02;;
12768;SDS011;6448;48.916;8.990;2023-03-04T01:42:25;13.18;;;11.90;;
12768;SDS011;6448;48.916;8.990;2023-03-04T01:43:29;13.25;;;12.05;;
12768;SDS011;6448;48.916;8.990;2023-03-04T01:44:31;13.65;;;12.45;;
12768;SDS011;6448;48.916;8.990;2023-03-04T01:45:32;13.50;;;12.30;;
12768;SDS011;6448;48.916;8.990;2023-03-04T01:46:35;12.80;;;11.70;;
12768;SDS011;6448;48.916;8.990;2023-03-04T01:47:37;12.73;;;11.57;;
12768;SDS011;6448;48.916;8.990;2023-03-04T01:48:40;12.98;;;11.77;;
12768;SDS011;6448;48.916;8.990;2023-03-04T01:49:41;12.77;;;11.68;;
12768;SDS011;6448;48.916;8.990;2023-03-04T01:50:43;12.75;;;11.65;;
12768;SDS011;6448;48.916;8.990;2023-03-04T01:51:46;12.82;;;11.68;;
12768;SDS011;6448;48.916;8.990;2023-03-04T01:52:49;12.88;;;11.70;;
12768;SDS011;6448;48.916;8.990;2023-03-04T01:53:50;12.30;;;11.20;;
12768;SDS011;6448;48.916;8.990;2023-03-04T01:54:54;13.18;;;11.98;;
12768;SDS011;6448;48.916;8.990;2023-03-04T01:55:55;11.88;;;10.80;;
12768;SDS011;6448;48.916;8.990;2023-03-04T01:56:58;13.13;;;11.93;;
12768;SDS011;6448;48.916;8.990;2023-03-04T01:57:59;11.40;;;10.40;;
12768;SDS011;6448;48.916;8.990;2023-03-04T01:59:12;12.00;;;10.90;;
12768;SDS011;6448;48.916;8.990;2023-03-04T02:01:34;12.32;;;11.18;;
12768;SDS011;6448;48.916;8.990;2023-03-04T02:02:37;12.25;;;11.15;;
12768;SDS011;6448;48.916;8.990;2023-03-04T02:03:40;12.38;;;11.27;;
12768;SDS011;6448;48.916;8.990;2023-03-04T02:04:43;11.65;;;10.65;;
12768;SDS011;6448;48.916;8.990;2023-03-04T02:05:44;12.30;;;11.20;;
12768;SDS011;6448;48.916;8.990;2023-03-04T02:06:48;12.73;;;11.52;;
12768;SDS011;6448;48.916;8.990;2023-03-04T02:07:50;11.75;;;10.75;;
12768;SDS011;6448;48.916;8.990;2023-03-04T02:08:53;12.02;;;10.93;;
12768;SDS011;6448;48.916;8.990;2023-03-04T02:09:54;12.30;;;11.20;;
12768;SDS011;6448;48.916;8.990;2023-03-04T02:10:56;12.00;;;10.90;;
12768;SDS011;6448;48.916;8.990;2023-03-04T02:11:57;12.20;;;11.10;;
12768;SDS011;6448;48.916;8.990;2023-03-04T02:12:59;12.23;;;11.13;;
12768;SDS011;6448;48.916;8.990;2023-03-04T02:14:00;11.68;;;10.68;;
12768;SDS011;6448;48.916;8.990;2023-03-04T02:15:03;12.13;;;11.03;;
12768;SDS011;6448;48.916;8.990;2023-03-04T02:16:05;11.77;;;10.77;;
12768;SDS011;6448;48.916;8.990;2023-03-04T02:17:09;11.90;;;10.80;;
12768;SDS011;6448;48.916;8.990;2023-03-04T02:18:13;11.40;;;10.40;;
12768;SDS011;6448;48.916;8.990;2023-03-04T02:19:21;11.93;;;10.88;;
12768;SDS011;6448;48.916;8.990;2023-03-04T02:20:33;11.82;;;10.82;;
12768;SDS011;6448;48.916;8.990;2023-03-04T02:21:42;12.10;;;11.00;;
12768;SDS011;6448;48.916;8.990;2023-03-04T02:22:46;12.02;;;10.93;;
12768;SDS011;6448;48.916;8.990;2023-03-04T02:23:56;11.77;;;10.68;;
12768;SDS011;6448;48.916;8.990;2023-03-04T02:25:04;11.50;;;10.50;;
12768;SDS011;6448;48.916;8.990;2023-03-04T02:26:13;11.48;;;10.48;;
12768;SDS011;6448;48.916;8.990;2023-03-04T02:27:16;11.63;;;10.63;;
12768;SDS011;6448;48.916;8.990;2023-03-04T02:28:17;11.73;;;10.70;;
12768;SDS011;6448;48.916;8.990;2023-03-04T02:29:19;11.32;;;10.27;;
12768;SDS011;6448;48.916;8.990;2023-03-04T02:30:20;11.53;;;10.53;;
12768;SDS011;6448;48.916;8.990;2023-03-04T02:31:26;11.82;;;10.82;;
12768;SDS011;6448;48.916;8.990;2023-03-04T02:32:30;11.90;;;10.80;;
12768;SDS011;6448;48.916;8.990;2023-03-04T02:33:32;11.60;;;10.60;;
12768;SDS011;6448;48.916;8.990;2023-03-04T02:34:33;11.88;;;10.77;;
12768;SDS011;6448;48.916;8.990;2023-03-04T02:35:36;12.43;;;11.32;;
12768;SDS011;6448;48.916;8.990;2023-03-04T02:36:36;11.67;;;10.67;;
12768;SDS011;6448;48.916;8.990;2023-03-04T02:37:39;11.48;;;10.48;;
12768;SDS011;6448;48.916;8.990;2023-03-04T02:38:40;11.65;;;10.60;;
12768;SDS011;6448;48.916;8.990;2023-03-04T02:39:42;11.48;;;10.48;;
12768;SDS011;6448;48.916;8.990;2023-03-04T02:40:46;11.68;;;10.57;;
12768;SDS011;6448;48.916;8.990;2023-03-04T02:41:51;12.30;;;11.20;;
12768;SDS011;6448;48.916;8.990;2023-03-04T02:42:55;11.55;;;10.55;;
12768;SDS011;6448;48.916;8.990;2023-03-04T02:43:59;12.23;;;11.13;;
12768;SDS011;6448;48.916;8.990;2023-03-04T02:45:01;12.50;;;11.40;;
12768;SDS011;6448;48.916;8.990;2023-03-04T02:46:03;12.27;;;11.15;;
12768;SDS011;6448;48.916;8.990;2023-03-04T02:47:05;12.27;;;11.18;;
12768;SDS011;6448;48.916;8.990;2023-03-04T02:48:09;12.10;;;11.00;;
12768;SDS011;6448;48.916;8.990;2023-03-04T02:49:12;11.63;;;10.52;;
12768;SDS011;6448;48.916;8.990;2023-03-04T02:50:14;12.35;;;11.25;;
12768;SDS011;6448;48.916;8.990;2023-03-04T02:51:15;12.43;;;11.32;;
12768;SDS011;6448;48.916;8.990;2023-03-04T02:52:19;12.38;;;11.27;;
12768;SDS011;6448;48.916;8.990;2023-03-04T02:53:21;12.88;;;11.73;;
12768;SDS011;6448;48.916;8.990;2023-03-04T02:54:25;12.75;;;11.65;;
12768;SDS011;6448;48.916;8.990;2023-03-04T02:55:26;12.93;;;11.75;;
12768;SDS011;6448;48.916;8.990;2023-03-04T02:56:28;12.55;;;11.45;;
12768;SDS011;6448;48.916;8.990;2023-03-04T02:57:30;12.38;;;11.27;;
12768;SDS011;6448;48.916;8.990;2023-03-04T02:58:32;12.80;;;11.63;;
12768;SDS011;6448;48.916;8.990;2023-03-04T02:59:33;12.80;;;11.60;;
12768;SDS011;6448;48.916;8.990;2023-03-04T03:00:35;13.05;;;11.85;;
12768;SDS011;6448;48.916;8.990;2023-03-04T03:01:37;13.63;;;12.43;;
12768;SDS011;6448;48.916;8.990;2023-03-04T03:02:39;12.60;;;11.50;;
12768;SDS011;6448;48.916;8.990;2023-03-04T03:03:40;13.32;;;12.13;;
12768;SDS011;6448;48.916;8.990;2023-03-04T03:04:44;12.90;;;11.80;;
12768;SDS011;6448;48.916;8.990;2023-03-04T03:05:47;12.50;;;11.40;;
12768;SDS011;6448;48.916;8.990;2023-03-04T03:06:51;12.90;;;11.80;;
12768;SDS011;6448;48.916;8.990;2023-03-04T03:07:52;13.13;;;12.00;;
12768;SDS011;6448;48.916;8.990;2023-03-04T03:08:54;12.82;;;11.63;;
12768;SDS011;6448;48.916;8.990;2023-03-04T03:09:55;12.68;;;11.55;;
12768;SDS011;6448;48.916;8.990;2023-03-04T03:10:56;13.05;;;11.95;;
12768;SDS011;6448;48.916;8.990;2023-03-04T03:11:59;12.70;;;11.60;;
12768;SDS011;6448;48.916;8.990;2023-03-04T03:13:04;12.80;;;11.70;;
12768;SDS011;6448;48.916;8.990;2023-03-04T03:14:05;13.07;;;11.98;;
12768;SDS011;6448;48.916;8.990;2023-03-04T03:15:07;12.83;;;11.63;;
12768;SDS011;6448;48.916;8.990;2023-03-04T03:16:09;12.98;;;11.82;;
12768;SDS011;6448;48.916;8.990;2023-03-04T03:17:10;12.55;;;11.45;;
12768;SDS011;6448;48.916;8.990;2023-03-04T03:18:11;12.50;;;11.40;;
12768;SDS011;6448;48.916;8.990;2023-03-04T03:19:15;13.13;;;11.93;;
12768;SDS011;6448;48.916;8.990;2023-03-04T03:20:16;12.65;;;11.55;;
12768;SDS011;6448;48.916;8.990;2023-03-04T03:21:20;12.60;;;11.50;;
12768;SDS011;6448;48.916;8.990;2023-03-04T03:22:20;12.73;;;11.63;;
12768;SDS011;6448;48.916;8.990;2023-03-04T03:23:24;13.40;;;12.20;;
12768;SDS011;6448;48.916;8.990;2023-03-04T03:24:25;13.23;;;12.02;;
12768;SDS011;6448;48.916;8.990;2023-03-04T03:25:29;13.18;;;11.98;;
12768;SDS011;6448;48.916;8.990;2023-03-04T03:26:30;13.73;;;12.45;;
12768;SDS011;6448;48.916;8.990;2023-03-04T03:27:32;12.98;;;11.82;;
12768;SDS011;6448;48.916;8.990;2023-03-04T03:28:34;13.10;;;11.90;;
12768;SDS011;6448;48.916;8.990;2023-03-04T03:29:36;12.45;;;11.35;;
12768;SDS011;6448;48.916;8.990;2023-03-04T03:30:40;12.82;;;11.73;;
12768;SDS011;6448;48.916;8.990;2023-03-04T03:31:42;12.63;;;11.48;;
12768;SDS011;6448;48.916;8.990;2023-03-04T03:32:43;13.48;;;12.27;;
12768;SDS011;6448;48.916;8.990;2023-03-04T03:33:45;13.23;;;12.10;;
12768;SDS011;6448;48.916;8.990;2023-03-04T03:34:45;13.38;;;12.18;;
12768;SDS011;6448;48.916;8.990;2023-03-04T03:35:47;13.07;;;11.98;;
12768;SDS011;6448;48.916;8.990;2023-03-04T03:36:48;12.98;;;11.82;;
12768;SDS011;6448;48.916;8.990;2023-03-04T03:37:50;12.85;;;11.70;;
12768;SDS011;6448;48.916;8.990;2023-03-04T03:38:51;12.90;;;11.70;;
12768;SDS011;6448;48.916;8.990;2023-03-04T03:39:52;13.45;;;12.25;;
12768;SDS011;6448;48.916;8.990;2023-03-04T03:40:53;12.57;;;11.48;;
12768;SDS011;6448;48.916;8.990;2023-03-04T03:41:55;13.27;;;12.10;;
12768;SDS011;6448;48.916;8.990;2023-03-04T03:42:56;13.10;;;11.90;;
12768;SDS011;6448;48.916;8.990;2023-03-04T03:43:59;13.15;;;11.95;;
12768;SDS011;6448;48.916;8.990;2023-03-04T03:45:00;12.95;;;11.73;;
12768;SDS011;6448;48.916;8.990;2023-03-04T03:46:02;13.40;;;12.20;;
12768;SDS011;6448;48.916;8.990;2023-03-04T03:47:03;13.60;;;12.40;;
12768;SDS011;6448;48.916;8.990;2023-03-04T03:48:05;13.70;;;12.50;;
12768;SDS011;6448;48.916;8.990;2023-03-04T03:49:06;13.87;;;12.60;;
12768;SDS011;6448;48.916;8.990;2023-03-04T03:50:08;13.30;;;12.10;;
12768;SDS011;6448;48.916;8.990;2023-03-04T03:51:09;13.70;;;12.50;;
12768;SDS011;6448;48.916;8.990;2023-03-04T03:52:11;13.43;;;12.23;;
12768;SDS011;6448;48.916;8.990;2023-03-04T03:53:12;14.20;;;12.90;;
12768;SDS011;6448;48.916;8.990;2023-03-04T03:54:13;13.50;;;12.30;;
12768;SDS011;6448;48.916;8.990;2023-03-04T03:55:14;13.80;;;12.60;;
12768;SDS011;6448;48.916;8.990;2023-03-04T03:56:17;14.10;;;12.90;;
12768;SDS011;6448;48.916;8.990;2023-03-04T03:57:17;14.05;;;12.75;;
12768;SDS011;6448;48.916;8.990;2023-03-04T03:58:19;13.35;;;12.15;;
12768;SDS011;6448;48.916;8.990;2023-03-04T03:59:22;13.20;;;12.10;;
12768;SDS011;6448;48.916;8.990;2023-03-04T04:00:24;13.77;;;12.48;;
12768;SDS011;6448;48.916;8.990;2023-03-04T04:01:25;13.43;;;12.23;;
12768;SDS011;6448;48.916;8.990;2023-03-04T04:02:26;13.85;;;12.65;;
12768;SDS011;6448;48.916;8.990;2023-03-04T04:03:28;14.37;;;13.07;;
12768;SDS011;6448;48.916;8.990;2023-03-04T04:04:30;13.82;;;12.55;;
12768;SDS011;6448;48.916;8.990;2023-03-04T04:05:31;14.30;;;13.00;;
12768;SDS011;6448;48.916;8.990;2023-03-04T04:06:33;13.73;;;12.52;;
12768;SDS011;6448;48.916;8.990;2023-03-04T04:07:34;13.88;;;12.68;;
12768;SDS011;6448;48.916;8.990;2023-03-04T04:08:37;13.43;;;12.23;;
12768;SDS011;6448;48.916;8.990;2023-03-04T04:09:37;14.00;;;12.75;;
12768;SDS011;6448;48.916;8.990;2023-03-04T04:10:39;14.45;;;13.15;;
12768;SDS011;6448;48.916;8.990;2023-03-04T04:11:40;13.85;;;12.65;;
12768;SDS011;6448;48.916;8.990;2023-03-04T04:12:42;13.38;;;12.18;;
12768;SDS011;6448;48.916;8.990;2023-03-04T04:13:43;14.70;;;13.40;;
12768;SDS011;6448;48.916;8.990;2023-03-04T04:14:46;14.90;;;13.60;;
12768;SDS011;6448;48.916;8.990;2023-03-04T04:15:46;15.10;;;13.73;;
12768;SDS011;6448;48.916;8.990;2023-03-04T04:16:48;14.57;;;13.30;;
12768;SDS011;6448;48.916;8.990;2023-03-04T04:17:49;14.98;;;13.63;;
12768;SDS011;6448;48.916;8.990;2023-03-04T04:18:51;15.13;;;13.73;;
12768;SDS011;6448;48.916;8.990;2023-03-04T04:19:51;14.93;;;13.60;;
12768;SDS011;6448;48.916;8.990;2023-03-04T04:20:53;14.13;;;12.90;;
12768;SDS011;6448;48.916;8.990;2023-03-04T04:21:54;15.10;;;13.80;;
12768;SDS011;6448;48.916;8.990;2023-03-04T04:22:56;14.40;;;13.10;;
12768;SDS011;6448;48.916;8.990;2023-03-04T04:23:57;14.77;;;13.48;;
12768;SDS011;6448;48.916;8.990;2023-03-04T04:24:58;14.65;;;13.32;;
12768;SDS011;6448;48.916;8.990;2023-03-04T04:25:59;15.60;;;14.10;;
12768;SDS011;6448;48.916;8.990;2023-03-04T04:27:01;14.35;;;13.05;;
12768;SDS011;6448;48.916;8.990;2023-03-04T04:28:03;15.48;;;14.07;;
12768;SDS011;6448;48.916;8.990;2023-03-04T04:29:05;14.90;;;13.60;;
12768;SDS011;6448;48.916;8.990;2023-03-04T04:30:08;15.82;;;14.32;;
12768;SDS011;6448;48.916;8.990;2023-03-04T04:31:16;15.60;;;14.20;;
12768;SDS011;6448;48.916;8.990;2023-03-04T04:32:30;14.88;;;13.57;;
12768;SDS011;6448;48.916;8.990;2023-03-04T04:33:34;15.35;;;13.95;;
12768;SDS011;6448;48.916;8.990;2023-03-04T04:34:35;14.80;;;13.50;;
12768;SDS011;6448;48.916;8.990;2023-03-04T04:35:37;14.93;;;13.55;;
12768;SDS011;6448;48.916;8.990;2023-03-04T04:36:38;15.17;;;13.87;;
12768;SDS011;6448;48.916;8.990;2023-03-04T04:37:58;14.82;;;13.43;;
12768;SDS011;6448;48.916;8.990;2023-03-04T04:38:58;14.83;;;13.53;;
12768;SDS011;6448;48.916;8.990;2023-03-04T04:40:00;14.77;;;13.37;;
12768;SDS011;6448;48.916;8.990;2023-03-04T04:41:01;14.70;;;13.40;;
12768;SDS011;6448;48.916;8.990;2023-03-04T04:42:04;14.68;;;13.38;;
12768;SDS011;6448;48.916;8.990;2023-03-04T04:43:05;14.98;;;13.68;;
12768;SDS011;6448;48.916;8.990;2023-03-04T04:44:07;15.02;;;13.73;;
12768;SDS011;6448;48.916;8.990;2023-03-04T04:45:10;15.00;;;13.65;;
12768;SDS011;6448;48.916;8.990;2023-03-04T04:46:12;15.37;;;13.97;;
12768;SDS011;6448;48.916;8.990;2023-03-04T04:47:13;15.35;;;13.98;;
12768;SDS011;6448;48.916;8.990;2023-03-04T04:48:14;16.23;;;14.80;;
12768;SDS011;6448;48.916;8.990;2023-03-04T04:49:15;15.48;;;14.07;;
12768;SDS011;6448;48.916;8.990;2023-03-04T04:50:17;15.40;;;14.00;;
12768;SDS011;6448;48.916;8.990;2023-03-04T04:51:18;15.60;;;14.10;;
12768;SDS011;6448;48.916;8.990;2023-03-04T04:52:26;15.57;;;14.23;;
12768;SDS011;6448;48.916;8.990;2023-03-04T04:53:44;15.93;;;14.50;;
12768;SDS011;6448;48.916;8.990;2023-03-04T04:54:45;15.70;;;14.30;;
12768;SDS011;6448;48.916;8.990;2023-03-04T04:55:46;14.98;;;13.63;;
12768;SDS011;6448;48.916;8.990;2023-03-04T04:56:47;15.15;;;13.75;;
12768;SDS011;6448;48.916;8.990;2023-03-04T04:57:49;15.43;;;14.02;;
12768;SDS011;6448;48.916;8.990;2023-03-04T04:58:50;14.82;;;13.50;;
12768;SDS011;6448;48.916;8.990;2023-03-04T04:59:52;15.10;;;13.70;;
12768;SDS011;6448;48.916;8.990;2023-03-04T05:01:11;15.35;;;13.95;;
12768;SDS011;6448;48.916;8.990;2023-03-04T05:02:13;15.55;;;14.15;;
12768;SDS011;6448;48.916;8.990;2023-03-04T05:03:14;15.45;;;14.05;;
12768;SDS011;6448;48.916;8.990;2023-03-04T05:04:15;14.65;;;13.35;;
12768;SDS011;6448;48.916;8.990;2023-03-04T05:05:16;15.60;;;14.18;;
12768;SDS011;6448;48.916;8.990;2023-03-04T05:06:18;15.43;;;14.02;;
12768;SDS011;6448;48.916;8.990;2023-03-04T05:07:21;15.55;;;14.15;;
12768;SDS011;6448;48.916;8.990;2023-03-04T05:08:22;15.35;;;14.05;;
12768;SDS011;6448;48.916;8.990;2023-03-04T05:09:24;15.63;;;14.23;;
12768;SDS011;6448;48.916;8.990;2023-03-04T05:10:24;15.87;;;14.47;;
12768;SDS011;6448;48.916;8.990;2023-03-04T05:11:26;15.05;;;13.75;;
12768;SDS011;6448;48.916;8.990;2023-03-04T05:12:27;16.17;;;14.67;;
12768;SDS011;6448;48.916;8.990;2023-03-04T05:13:29;15.88;;;14.48;;
12768;SDS011;6448;48.916;8.990;2023-03-04T05:14:30;15.95;;;14.48;;
12768;SDS011;6448;48.916;8.990;2023-03-04T05:15:31;16.40;;;14.90;;
12768;SDS011;6448;48.916;8.990;2023-03-04T05:16:34;15.95;;;14.50;;
12768;SDS011;6448;48.916;8.990;2023-03-04T05:17:35;15.73;;;14.32;;
12768;SDS011;6448;48.916;8.990;2023-03-04T05:18:36;15.88;;;14.43;;
12768;SDS011;6448;48.916;8.990;2023-03-04T05:19:38;15.75;;;14.35;;
12768;SDS011;6448;48.916;8.990;2023-03-04T05:20:39;15.60;;;14.20;;
12768;SDS011;6448;48.916;8.990;2023-03-04T05:21:40;15.60;;;14.20;;
12768;SDS011;6448;48.916;8.990;2023-03-04T05:22:41;15.82;;;14.35;;
12768;SDS011;6448;48.916;8.990;2023-03-04T05:23:43;15.65;;;14.25;;
12768;SDS011;6448;48.916;8.990;2023-03-04T05:24:44;15.25;;;13.85;;
12768;SDS011;6448;48.916;8.990;2023-03-04T05:25:46;15.40;;;14.00;;
12768;SDS011;6448;48.916;8.990;2023-03-04T05:26:47;15.38;;;13.98;;
12768;SDS011;6448;48.916;8.990;2023-03-04T05:27:49;15.75;;;14.35;;
12768;SDS011;6448;48.916;8.990;2023-03-04T05:28:49;15.25;;;13.95;;
12768;SDS011;6448;48.916;8.990;2023-03-04T05:29:51;15.25;;;13.85;;
12768;SDS011;6448;48.916;8.990;2023-03-04T05:30:53;14.35;;;13.05;;
12768;SDS011;6448;48.916;8.990;2023-03-04T05:31:56;15.32;;;13.95;;
12768;SDS011;6448;48.916;8.990;2023-03-04T05:32:57;15.35;;;13.95;;
12768;SDS011;6448;48.916;8.990;2023-03-04T05:33:58;15.40;;;13.98;;
12768;SDS011;6448;48.916;8.990;2023-03-04T05:34:59;15.63;;;14.23;;
12768;SDS011;6448;48.916;8.990;2023-03-04T05:36:03;15.65;;;14.25;;
12768;SDS011;6448;48.916;8.990;2023-03-04T05:37:05;14.68;;;13.38;;
12768;SDS011;6448;48.916;8.990;2023-03-04T05:38:08;15.15;;;13.80;;
12768;SDS011;6448;48.916;8.990;2023-03-04T05:39:11;15.32;;;13.93;;
12768;SDS011;6448;48.916;8.990;2023-03-04T05:40:13;15.18;;;13.85;;
12768;SDS011;6448;48.916;8.990;2023-03-04T05:41:14;14.63;;;13.25;;
12768;SDS011;6448;48.916;8.990;2023-03-04T05:42:17;15.47;;;14.07;;
12768;SDS011;6448;48.916;8.990;2023-03-04T05:43:18;15.05;;;13.73;;
12768;SDS011;6448;48.916;8.990;2023-03-04T05:44:21;16.63;;;15.00;;
12768;SDS011;6448;48.916;8.990;2023-03-04T05:45:22;15.52;;;14.13;;
12768;SDS011;6448;48.916;8.990;2023-03-04T05:46:24;15.40;;;14.00;;
12768;SDS011;6448;48.916;8.990;2023-03-04T05:47:27;16.00;;;14.60;;
12768;SDS011;6448;48.916;8.990;2023-03-04T05:48:28;16.02;;;14.55;;
12768;SDS011;6448;48.916;8.990;2023-03-04T05:49:29;16.20;;;14.70;;
12768;SDS011;6448;48.916;8.990;2023-03-04T05:50:31;15.80;;;14.40;;
12768;SDS011;6448;48.916;8.990;2023-03-04T05:51:33;16.23;;;14.73;;
12768;SDS011;6448;48.916;8.990;2023-03-04T05:52:34;16.02;;;14.57;;
12768;SDS011;6448;48.916;8.990;2023-03-04T05:53:35;15.63;;;14.20;;
12768;SDS011;6448;48.916;8.990;2023-03-04T05:54:38;16.48;;;14.98;;
12768;SDS011;6448;48.916;8.990;2023-03-04T05:55:39;16.40;;;14.90;;
12768;SDS011;6448;48.916;8.990;2023-03-04T05:56:41;16.40;;;14.93;;
12768;SDS011;6448;48.916;8.990;2023-03-04T05:57:42;16.45;;;14.93;;
12768;SDS011;6448;48.916;8.990;2023-03-04T05:58:44;16.80;;;15.23;;
12768;SDS011;6448;48.916;8.990;2023-03-04T05:59:46;15.88;;;14.48;;
12768;SDS011;6448;48.916;8.990;2023-03-04T06:00:48;17.07;;;15.53;;
12768;SDS011;6448;48.916;8.990;2023-03-04T06:01:49;16.35;;;14.90;;
12768;SDS011;6448;48.916;8.990;2023-03-04T06:02:52;16.73;;;15.23;;
12768;SDS011;6448;48.916;8.990;2023-03-04T06:03:53;16.67;;;15.18;;
12768;SDS011;6448;48.916;8.990;2023-03-04T06:04:54;16.77;;;15.23;;
12768;SDS011;6448;48.916;8.990;2023-03-04T06:05:55;16.92;;;15.35;;
12768;SDS011;6448;48.916;8.990;2023-03-04T06:06:57;16.88;;;15.27;;
12768;SDS011;6448;48.916;8.990;2023-03-04T06:07:58;15.88;;;14.43;;
12768;SDS011;6448;48.916;8.990;2023-03-04T06:08:59;16.35;;;14.85;;
12768;SDS011;6448;48.916;8.990;2023-03-04T06:10:00;15.88;;;14.48;;